| Date | Time | Temp. (oF) | Dew Point (oF) | Rel. Hum. (%) | Press. (in.) | Wind Dir. | Wind Speed (mph) | Hourly Rainfall (in.) |
|
|---|---|---|---|---|---|---|---|---|---|
| 1 | 03/11 | 00:00 | 17 | 10 | 75 | 30.25 | SW | 1 | 0.00 |
| 2 | 03/10 | 23:00 | 19 | 11 | 71 | 30.25 | SW | 1 | 0.00 |
| 3 | 03/10 | 22:00 | 21 | 10 | 62 | 30.25 | WSW | 2 | 0.00 |
| 4 | 03/10 | 21:00 | 22 | 9 | 57 | 30.24 | NW | 2 | 0.00 |
| 5 | 03/10 | 20:00 | 24 | 8 | 52 | 30.23 | NW | 3 | 0.00 |
| 6 | 03/10 | 19:00 | 25 | 8 | 48 | 30.22 | NNW | 3 | 0.00 |
| 7 | 03/10 | 18:00 | 26 | 8 | 47 | 30.19 | W | 8 | 0.00 |
| 8 | 03/10 | 17:00 | 28 | 8 | 43 | 30.15 | WNW | 7 | 0.00 |
| 9 | 03/10 | 16:00 | 28 | 7 | 42 | 30.15 | WNW | 13 | 0.00 |
| 10 | 03/10 | 15:00 | 28 | 8 | 43 | 30.16 | W | 10 | 0.00 |
| 11 | 03/10 | 14:00 | 28 | 9 | 46 | 30.16 | W | 4 | 0.00 |
| 12 | 03/10 | 13:00 | 26 | 7 | 45 | 30.18 | NW | 8 | 0.00 |
| 13 | 03/10 | 12:00 | 26 | 7 | 46 | 30.18 | W | 21 | 0.00 |
| 14 | 03/10 | 11:00 | 24 | 7 | 49 | 30.18 | NW | 8 | 0.00 |
| 15 | 03/10 | 10:00 | 23 | 7 | 50 | 30.18 | NW | 10 | 0.00 |
| 16 | 03/10 | 09:00 | 21 | 6 | 54 | 30.17 | NW | 8 | 0.00 |
| 17 | 03/10 | 08:00 | 20 | 13 | 74 | 30.14 | SSW | 2 | 0.00 |
| 18 | 03/10 | 07:00 | 14 | 10 | 85 | 30.12 | SSW | 4 | 0.00 |
| 19 | 03/10 | 06:00 | 15 | 8 | 75 | 30.10 | NW | 0 | 0.00 |
| 20 | 03/10 | 05:00 | 16 | 8 | 72 | 30.06 | NNW | 0 | 0.00 |
| 21 | 03/10 | 04:00 | 18 | 7 | 62 | 30.03 | NNW | 1 | 0.00 |
| 22 | 03/10 | 03:00 | 19 | 7 | 60 | 30.01 | NW | 1 | 0.00 |
| 23 | 03/10 | 02:00 | 19 | 7 | 59 | 30.02 | NNW | 3 | 0.00 |
| 24 | 03/10 | 01:00 | 20 | 6 | 55 | 30.02 | NW | 1 | 0.00 |